SPKWH EPMO-EPGY
Flight info
| Callsign | SPKWH |
|---|---|
| Flight time | 0h 32m |
| Altitude | 1500 |
| Route | DCT EPMOI/N0105A055 DCT EPMOY DCT |
| Aircraft | DV20/L-SY/S |
Departure
| Time | 2026-05-07 19:24 |
|---|---|
| Airport | Warsaw Modlin Airport (EPMO) |
Arrival
| Time | 2026-05-07 19:56 |
|---|---|
| Airport | Grądy Airfield (EPGY) |
| Time | Latitude | Longitude | Altitude | Speed | Heading |
|---|---|---|---|---|---|
| 2026-05-07 19:17 | 52.44867 | 20.66886 | 333 ft | 0 kts | 266° |
| 2026-05-07 19:19 | 52.44895 | 20.66842 | 332 ft | 0 kts | 266° |
| 2026-05-07 19:20 | 52.44901 | 20.66841 | 332 ft | 0 kts | 354° |
| 2026-05-07 19:20 | 52.44904 | 20.66840 | 332 ft | 0 kts | 356° |
| 2026-05-07 19:20 | 52.44905 | 20.66840 | 332 ft | 0 kts | 355° |
| 2026-05-07 19:21 | 52.44930 | 20.66838 | 331 ft | 9 kts | 7° |
| 2026-05-07 19:21 | 52.44951 | 20.66964 | 331 ft | 18 kts | 82° |
| 2026-05-07 19:22 | 52.45009 | 20.67070 | 331 ft | 16 kts | 356° |
| 2026-05-07 19:22 | 52.45140 | 20.67044 | 329 ft | 16 kts | 354° |
| 2026-05-07 19:22 | 52.45204 | 20.67019 | 329 ft | 5 kts | 342° |
| 2026-05-07 19:22 | 52.45254 | 20.66993 | 329 ft | 10 kts | 346° |
| 2026-05-07 19:23 | 52.45291 | 20.66939 | 328 ft | 8 kts | 260° |
| 2026-05-07 19:23 | 52.45250 | 20.66521 | 347 ft | 64 kts | 262° |
| 2026-05-07 19:23 | 52.45168 | 20.65737 | 590 ft | 70 kts | 264° |
| 2026-05-07 19:23 | 52.45091 | 20.64926 | 806 ft | 71 kts | 265° |
| 2026-05-07 19:24 | 52.45286 | 20.64321 | 1019 ft | 59 kts | 339° |
| 2026-05-07 19:24 | 52.45691 | 20.64343 | 1175 ft | 63 kts | 12° |
| 2026-05-07 19:24 | 52.46111 | 20.64541 | 1360 ft | 63 kts | 17° |
| 2026-05-07 19:24 | 52.46552 | 20.64755 | 1489 ft | 71 kts | 16° |
| 2026-05-07 19:25 | 52.47062 | 20.64915 | 1547 ft | 75 kts | 8° |
| 2026-05-07 19:25 | 52.47583 | 20.65056 | 1549 ft | 77 kts | 18° |
| 2026-05-07 19:25 | 52.48041 | 20.65632 | 1518 ft | 89 kts | 41° |
| 2026-05-07 19:25 | 52.48523 | 20.66356 | 1480 ft | 99 kts | 37° |
| 2026-05-07 19:26 | 52.49049 | 20.67053 | 1566 ft | 95 kts | 37° |
| 2026-05-07 19:26 | 52.49525 | 20.67778 | 1835 ft | 85 kts | 39° |
| 2026-05-07 19:26 | 52.49918 | 20.68417 | 2142 ft | 75 kts | 40° |
| 2026-05-07 19:26 | 52.50322 | 20.68917 | 2390 ft | 73 kts | 30° |
| 2026-05-07 19:27 | 52.50747 | 20.69384 | 2631 ft | 74 kts | 30° |
| 2026-05-07 19:27 | 52.51176 | 20.69852 | 2873 ft | 74 kts | 30° |
| 2026-05-07 19:27 | 52.51605 | 20.70319 | 3107 ft | 75 kts | 30° |
| 2026-05-07 19:27 | 52.52055 | 20.70805 | 3334 ft | 77 kts | 29° |
| 2026-05-07 19:28 | 52.52506 | 20.71295 | 3563 ft | 78 kts | 30° |
| 2026-05-07 19:28 | 52.52956 | 20.71787 | 3790 ft | 79 kts | 30° |
| 2026-05-07 19:28 | 52.53414 | 20.72291 | 4014 ft | 80 kts | 30° |
| 2026-05-07 19:28 | 52.53879 | 20.72807 | 4243 ft | 81 kts | 30° |
| 2026-05-07 19:29 | 52.54343 | 20.73330 | 4467 ft | 82 kts | 30° |
| 2026-05-07 19:29 | 52.54806 | 20.73858 | 4687 ft | 82 kts | 30° |
| 2026-05-07 19:29 | 52.55283 | 20.74411 | 4905 ft | 84 kts | 30° |
| 2026-05-07 19:29 | 52.55799 | 20.75000 | 4984 ft | 99 kts | 30° |
| 2026-05-07 19:30 | 52.56425 | 20.75693 | 4994 ft | 113 kts | 30° |
| 2026-05-07 19:30 | 52.57102 | 20.76426 | 4990 ft | 119 kts | 30° |
| 2026-05-07 19:30 | 52.57808 | 20.77183 | 4986 ft | 119 kts | 30° |
| 2026-05-07 19:30 | 52.58492 | 20.77918 | 5022 ft | 114 kts | 30° |
| 2026-05-07 19:31 | 52.58998 | 20.78737 | 5331 ft | 99 kts | 60° |
| 2026-05-07 19:31 | 52.59272 | 20.79725 | 5564 ft | 93 kts | 62° |
| 2026-05-07 19:31 | 52.59533 | 20.80699 | 5761 ft | 92 kts | 62° |
| 2026-05-07 19:31 | 52.59794 | 20.81675 | 5946 ft | 93 kts | 62° |
| 2026-05-07 19:32 | 52.60057 | 20.82649 | 6132 ft | 94 kts | 62° |
| 2026-05-07 19:32 | 52.60325 | 20.83634 | 6322 ft | 94 kts | 62° |
| 2026-05-07 19:32 | 52.60596 | 20.84627 | 6514 ft | 95 kts | 62° |
| 2026-05-07 19:32 | 52.60870 | 20.85622 | 6708 ft | 96 kts | 62° |
| 2026-05-07 19:33 | 52.61145 | 20.86616 | 6911 ft | 95 kts | 62° |
| 2026-05-07 19:33 | 52.61425 | 20.87613 | 7106 ft | 96 kts | 62° |
| 2026-05-07 19:33 | 52.61706 | 20.88607 | 7290 ft | 96 kts | 62° |
| 2026-05-07 19:33 | 52.61991 | 20.89619 | 7477 ft | 97 kts | 62° |
| 2026-05-07 19:34 | 52.62274 | 20.90625 | 7660 ft | 97 kts | 62° |
| 2026-05-07 19:34 | 52.62545 | 20.91653 | 7840 ft | 98 kts | 64° |
| 2026-05-07 19:34 | 52.62811 | 20.92685 | 8049 ft | 99 kts | 64° |
| 2026-05-07 19:34 | 52.63085 | 20.93734 | 8258 ft | 100 kts | 64° |
| 2026-05-07 19:35 | 52.63360 | 20.94787 | 8476 ft | 100 kts | 64° |
| 2026-05-07 19:35 | 52.63639 | 20.95848 | 8694 ft | 100 kts | 64° |
| 2026-05-07 19:35 | 52.63917 | 20.96898 | 8905 ft | 101 kts | 64° |
| 2026-05-07 19:35 | 52.64205 | 20.97963 | 9119 ft | 102 kts | 64° |
| 2026-05-07 19:36 | 52.64493 | 20.99020 | 9346 ft | 102 kts | 64° |
| 2026-05-07 19:36 | 52.64794 | 21.00108 | 9482 ft | 111 kts | 64° |
| 2026-05-07 19:36 | 52.65129 | 21.01294 | 9507 ft | 125 kts | 64° |
| 2026-05-07 19:36 | 52.65502 | 21.02596 | 9502 ft | 135 kts | 64° |
| 2026-05-07 19:37 | 52.65907 | 21.04003 | 9499 ft | 138 kts | 64° |
| 2026-05-07 19:37 | 52.66141 | 21.04817 | 9495 ft | 137 kts | 64° |
| 2026-05-07 19:37 | 52.66543 | 21.06220 | 9488 ft | 133 kts | 64° |
| 2026-05-07 19:37 | 52.66848 | 21.07289 | 9490 ft | 132 kts | 64° |
| 2026-05-07 19:38 | 52.67236 | 21.08670 | 9495 ft | 133 kts | 65° |
| 2026-05-07 19:38 | 52.67617 | 21.10059 | 9492 ft | 134 kts | 65° |
| 2026-05-07 19:38 | 52.68002 | 21.11469 | 9493 ft | 134 kts | 65° |
| 2026-05-07 19:38 | 52.68387 | 21.12872 | 9492 ft | 135 kts | 65° |
| 2026-05-07 19:39 | 52.68771 | 21.14268 | 9490 ft | 135 kts | 65° |
| 2026-05-07 19:39 | 52.69163 | 21.15684 | 9488 ft | 135 kts | 65° |
| 2026-05-07 19:39 | 52.69549 | 21.17072 | 9481 ft | 134 kts | 65° |
| 2026-05-07 19:39 | 52.69935 | 21.18465 | 9484 ft | 133 kts | 65° |
| 2026-05-07 19:40 | 52.70315 | 21.19841 | 9487 ft | 133 kts | 65° |
| 2026-05-07 19:40 | 52.70699 | 21.21225 | 9492 ft | 133 kts | 65° |
| 2026-05-07 19:40 | 52.71090 | 21.22630 | 9494 ft | 134 kts | 65° |
| 2026-05-07 19:40 | 52.71479 | 21.24031 | 9489 ft | 134 kts | 65° |
| 2026-05-07 19:41 | 52.71865 | 21.25425 | 9488 ft | 134 kts | 65° |
| 2026-05-07 19:41 | 52.72248 | 21.26816 | 9491 ft | 134 kts | 65° |
| 2026-05-07 19:41 | 52.72619 | 21.28223 | 9491 ft | 134 kts | 66° |
| 2026-05-07 19:41 | 52.72990 | 21.29632 | 9494 ft | 134 kts | 66° |
| 2026-05-07 19:42 | 52.73360 | 21.31036 | 9496 ft | 134 kts | 66° |
| 2026-05-07 19:42 | 52.73730 | 21.32438 | 9495 ft | 134 kts | 66° |
| 2026-05-07 19:42 | 52.74101 | 21.33846 | 9498 ft | 134 kts | 66° |
| 2026-05-07 19:42 | 52.74473 | 21.35257 | 9499 ft | 134 kts | 66° |
| 2026-05-07 19:43 | 52.74843 | 21.36663 | 9498 ft | 134 kts | 66° |
| 2026-05-07 19:43 | 52.75214 | 21.38090 | 9494 ft | 134 kts | 66° |
| 2026-05-07 19:43 | 52.75556 | 21.39537 | 9484 ft | 134 kts | 69° |
| 2026-05-07 19:43 | 52.75880 | 21.40989 | 9447 ft | 135 kts | 70° |
| 2026-05-07 19:44 | 52.76191 | 21.42454 | 9412 ft | 136 kts | 71° |
| 2026-05-07 19:44 | 52.76480 | 21.43937 | 9372 ft | 135 kts | 73° |
| 2026-05-07 19:44 | 52.76746 | 21.45415 | 9322 ft | 136 kts | 73° |
| 2026-05-07 19:44 | 52.76996 | 21.46929 | 9234 ft | 137 kts | 77° |
| 2026-05-07 19:45 | 52.77246 | 21.48447 | 9027 ft | 136 kts | 74° |
| 2026-05-07 19:45 | 52.77531 | 21.49930 | 8739 ft | 138 kts | 72° |
| 2026-05-07 19:45 | 52.77802 | 21.51455 | 8430 ft | 141 kts | 73° |
| 2026-05-07 19:45 | 52.78106 | 21.52987 | 8103 ft | 141 kts | 72° |
| 2026-05-07 19:46 | 52.78377 | 21.54561 | 7757 ft | 143 kts | 72° |
| 2026-05-07 19:46 | 52.78692 | 21.56097 | 7426 ft | 143 kts | 70° |
| 2026-05-07 19:46 | 52.78981 | 21.57679 | 7009 ft | 147 kts | 73° |
| 2026-05-07 19:46 | 52.79259 | 21.59320 | 6549 ft | 147 kts | 54° |
| 2026-05-07 19:47 | 52.79567 | 21.60849 | 6111 ft | 145 kts | 77° |
| 2026-05-07 19:47 | 52.79716 | 21.62531 | 5473 ft | 148 kts | 76° |
| 2026-05-07 19:47 | 52.79921 | 21.64066 | 4672 ft | 140 kts | 95° |
| 2026-05-07 19:47 | 52.80066 | 21.65597 | 3637 ft | 138 kts | 96° |
| 2026-05-07 19:48 | 52.80340 | 21.67116 | 2760 ft | 154 kts | 76° |
| 2026-05-07 19:48 | 52.80665 | 21.68538 | 2405 ft | 120 kts | 62° |
| 2026-05-07 19:48 | 52.81027 | 21.69756 | 2106 ft | 118 kts | 60° |
| 2026-05-07 19:48 | 52.81385 | 21.70937 | 1905 ft | 114 kts | 60° |
| 2026-05-07 19:49 | 52.81691 | 21.72126 | 1711 ft | 112 kts | 64° |
| 2026-05-07 19:49 | 52.81958 | 21.73318 | 1565 ft | 108 kts | 71° |
| 2026-05-07 19:49 | 52.81914 | 21.74521 | 1458 ft | 102 kts | 90° |
| 2026-05-07 19:49 | 52.81824 | 21.75680 | 1346 ft | 102 kts | 92° |
| 2026-05-07 19:50 | 52.81674 | 21.76817 | 1280 ft | 99 kts | 98° |
| 2026-05-07 19:50 | 52.81538 | 21.77920 | 1319 ft | 96 kts | 93° |
| 2026-05-07 19:50 | 52.81437 | 21.79014 | 1334 ft | 90 kts | 85° |
| 2026-05-07 19:50 | 52.81702 | 21.79684 | 1211 ft | 69 kts | 11° |
| 2026-05-07 19:51 | 52.82170 | 21.79745 | 1067 ft | 65 kts | 12° |
| 2026-05-07 19:51 | 52.82586 | 21.79916 | 989 ft | 60 kts | 14° |
| 2026-05-07 19:51 | 52.82990 | 21.80057 | 924 ft | 57 kts | 8° |
| 2026-05-07 19:51 | 52.83384 | 21.79934 | 884 ft | 60 kts | 329° |
| 2026-05-07 19:52 | 52.83604 | 21.79247 | 654 ft | 77 kts | 291° |
| 2026-05-07 19:52 | 52.83667 | 21.78326 | 478 ft | 79 kts | 282° |
| 2026-05-07 19:52 | 52.83717 | 21.77448 | 466 ft | 77 kts | 282° |
| 2026-05-07 19:52 | 52.83750 | 21.76600 | 540 ft | 70 kts | 279° |
| 2026-05-07 19:53 | 52.83772 | 21.75774 | 720 ft | 73 kts | 278° |
| 2026-05-07 19:53 | 52.83792 | 21.74942 | 910 ft | 70 kts | 273° |
| 2026-05-07 19:53 | 52.83515 | 21.74320 | 1075 ft | 78 kts | 193° |
| 2026-05-07 19:53 | 52.83073 | 21.74700 | 1187 ft | 79 kts | 105° |
| 2026-05-07 19:54 | 52.82920 | 21.75631 | 1196 ft | 87 kts | 92° |
| 2026-05-07 19:54 | 52.82793 | 21.76633 | 1196 ft | 91 kts | 98° |
| 2026-05-07 19:54 | 52.82639 | 21.77648 | 1212 ft | 86 kts | 93° |
| 2026-05-07 19:54 | 52.82520 | 21.78580 | 1074 ft | 79 kts | 97° |
| 2026-05-07 19:55 | 52.82656 | 21.79220 | 982 ft | 58 kts | 20° |
| 2026-05-07 19:55 | 52.83052 | 21.79358 | 855 ft | 55 kts | 14° |
| 2026-05-07 19:55 | 52.83392 | 21.79223 | 765 ft | 52 kts | 327° |
| 2026-05-07 19:55 | 52.83634 | 21.78688 | 543 ft | 69 kts | 310° |
| 2026-05-07 19:56 | 52.83685 | 21.77901 | 402 ft | 62 kts | 285° |
| 2026-05-07 19:56 | 52.83719 | 21.77426 | 398 ft | 13 kts | 278° |
| 2026-05-07 19:56 | 52.83719 | 21.77411 | 398 ft | 8 kts | 78° |
| 2026-05-07 19:56 | 52.83688 | 21.77463 | 398 ft | 8 kts | 202° |
| 2026-05-07 19:57 | 52.83671 | 21.77441 | 398 ft | 4 kts | 293° |
| 2026-05-07 19:57 | 52.83655 | 21.77415 | 398 ft | 2 kts | 78° |